TAF EGSS
EGSS 090505Z 0906/1012 24010KT 9999 SCT030 PROB30 TEMPO 0906/0909 7000 SHRA BKN014 BECMG 0915/0918 16006KT BECMG 0918/0921 -RA BKN012 TEMPO 0919/1001 6000 RA BKN007 PROB30 TEMPO 0920/0924 3000 +RA RADZ BKN004 BECMG 0922/1001 30013KT BECMG 1001/1004 NSW SCT022 TEMPO 1002/1012 31018G28KT=
METAR EGSS
WC EGSS
WS EGSS
WV EGSS